Terminal Aerodrome Forecast
Issued by NWS Green Bay, WI

Home | Current Version | Previous Version | Text Only | Print | Product List | Glossary On
Versions: 1 2 3 4 5 6 7 8 9 10 11 12 13 14 15 16 17 18 19 20 21 22 23 24 25 26 27 28 29 30 31 32 33 34
000
FTUS43 KGRB 181120
TAFGRB
TAF
KGRB 181120Z 1812/1912 34006KT P6SM SCT250
     FM181900 03009KT P6SM OVC045
     FM190200 04012KT 6SM -SN OVC026
     FM190500 02011G16KT 4SM -SN OVC023
     FM190900 02011G17KT 6SM -SN OVC030
     FM191100 02010G17KT P6SM -SN OVC035=

USA.gov is the U.S. government's official web portal to all federal, state and local government web resources and services.